sensor_id;sensor_type;location;lat;lon;timestamp;pressure;altitude;pressure_sealevel;temperature;humidity
11712;BME280;5912;51.034;6.984;2022-09-19T00:00:37;100982.75;;;11.74;100.00
11712;BME280;5912;51.034;6.984;2022-09-19T00:03:02;100985.03;;;11.77;100.00
11712;BME280;5912;51.034;6.984;2022-09-19T00:05:28;100980.53;;;11.77;100.00
11712;BME280;5912;51.034;6.984;2022-09-19T00:07:53;100975.06;;;11.72;100.00
11712;BME280;5912;51.034;6.984;2022-09-19T00:10:18;100977.28;;;11.75;100.00
11712;BME280;5912;51.034;6.984;2022-09-19T00:12:44;100982.75;;;11.74;100.00
11712;BME280;5912;51.034;6.984;2022-09-19T00:15:09;100985.22;;;11.69;100.00
11712;BME280;5912;51.034;6.984;2022-09-19T00:17:35;100980.31;;;11.66;100.00
11712;BME280;5912;51.034;6.984;2022-09-19T00:20:00;100977.31;;;11.69;100.00
11712;BME280;5912;51.034;6.984;2022-09-19T00:22:25;100976.09;;;11.65;100.00
11712;BME280;5912;51.034;6.984;2022-09-19T00:24:51;100982.56;;;11.75;100.00
11712;BME280;5912;51.034;6.984;2022-09-19T00:27:19;100986.44;;;11.79;100.00
11712;BME280;5912;51.034;6.984;2022-09-19T00:29:45;100974.66;;;11.82;100.00
11712;BME280;5912;51.034;6.984;2022-09-19T00:32:11;100982.78;;;11.87;100.00
11712;BME280;5912;51.034;6.984;2022-09-19T00:34:42;100983.38;;;11.89;100.00
11712;BME280;5912;51.034;6.984;2022-09-19T00:37:08;100983.19;;;11.90;100.00
11712;BME280;5912;51.034;6.984;2022-09-19T00:39:34;100981.56;;;11.89;100.00
11712;BME280;5912;51.034;6.984;2022-09-19T00:41:59;100980.34;;;11.85;100.00
11712;BME280;5912;51.034;6.984;2022-09-19T00:46:53;100978.53;;;11.79;100.00
11712;BME280;5912;51.034;6.984;2022-09-19T00:49:21;100952.75;;;11.62;100.00
11712;BME280;5912;51.034;6.984;2022-09-19T00:51:53;100994.94;;;11.88;100.00
11712;BME280;5912;51.034;6.984;2022-09-19T00:54:22;100987.63;;;11.90;100.00
11712;BME280;5912;51.034;6.984;2022-09-19T00:56:52;100991.28;;;11.96;100.00
11712;BME280;5912;51.034;6.984;2022-09-19T00:59:20;100993.72;;;11.97;100.00
11712;BME280;5912;51.034;6.984;2022-09-19T01:01:47;100996.16;;;12.12;100.00
11712;BME280;5912;51.034;6.984;2022-09-19T01:04:17;100990.88;;;12.05;100.00
11712;BME280;5912;51.034;6.984;2022-09-19T01:17:16;100997.56;;;11.94;100.00
11712;BME280;5912;51.034;6.984;2022-09-19T01:19:53;100999.81;;;11.91;100.00
11712;BME280;5912;51.034;6.984;2022-09-19T01:25:36;101006.47;;;11.93;100.00
11712;BME280;5912;51.034;6.984;2022-09-19T01:28:20;101007.91;;;11.96;100.00
11712;BME280;5912;51.034;6.984;2022-09-19T01:31:11;101015.41;;;11.99;100.00
11712;BME280;5912;51.034;6.984;2022-09-19T01:36:38;101004.66;;;11.94;100.00
11712;BME280;5912;51.034;6.984;2022-09-19T01:39:07;101004.66;;;11.87;100.00
11712;BME280;5912;51.034;6.984;2022-09-19T01:41:34;101010.34;;;11.84;100.00
11712;BME280;5912;51.034;6.984;2022-09-19T01:44:01;100999.81;;;11.78;100.00
11712;BME280;5912;51.034;6.984;2022-09-19T01:55:21;101016.41;;;11.72;100.00
11712;BME280;5912;51.034;6.984;2022-09-19T01:58:04;101027.75;;;11.72;100.00
11712;BME280;5912;51.034;6.984;2022-09-19T02:00:32;101044.16;;;11.68;100.00
11712;BME280;5912;51.034;6.984;2022-09-19T02:03:05;101041.91;;;11.65;100.00
11712;BME280;5912;51.034;6.984;2022-09-19T02:05:49;100994.25;;;11.40;100.00
11712;BME280;5912;51.034;6.984;2022-09-19T02:08:43;101037.47;;;11.65;100.00
11712;BME280;5912;51.034;6.984;2022-09-19T02:11:18;101038.25;;;11.66;100.00
11712;BME280;5912;51.034;6.984;2022-09-19T02:13:46;101041.09;;;11.71;100.00
11712;BME280;5912;51.034;6.984;2022-09-19T02:16:30;101042.97;;;11.77;100.00
11712;BME280;5912;51.034;6.984;2022-09-19T02:19:00;101038.47;;;11.64;100.00
11712;BME280;5912;51.034;6.984;2022-09-19T02:21:33;101033.00;;;11.79;100.00
11712;BME280;5912;51.034;6.984;2022-09-19T02:24:04;101035.25;;;11.88;100.00
11712;BME280;5912;51.034;6.984;2022-09-19T02:26:32;101037.06;;;11.94;100.00
11712;BME280;5912;51.034;6.984;2022-09-19T02:28:59;101036.91;;;11.96;100.00
11712;BME280;5912;51.034;6.984;2022-09-19T02:31:26;101037.06;;;12.01;100.00
11712;BME280;5912;51.034;6.984;2022-09-19T02:34:00;101045.19;;;12.00;100.00
11712;BME280;5912;51.034;6.984;2022-09-19T02:36:29;101045.19;;;11.80;100.00
11712;BME280;5912;51.034;6.984;2022-09-19T02:39:08;101033.25;;;11.97;100.00
11712;BME280;5912;51.034;6.984;2022-09-19T02:42:10;101036.28;;;11.94;100.00
11712;BME280;5912;51.034;6.984;2022-09-19T02:47:26;101044.81;;;11.96;100.00
11712;BME280;5912;51.034;6.984;2022-09-19T02:50:00;101018.66;;;11.75;100.00
11712;BME280;5912;51.034;6.984;2022-09-19T02:52:32;101048.44;;;11.95;100.00
11712;BME280;5912;51.034;6.984;2022-09-19T02:55:20;101050.84;;;11.90;100.00
11712;BME280;5912;51.034;6.984;2022-09-19T02:57:51;101055.13;;;11.84;100.00
11712;BME280;5912;51.034;6.984;2022-09-19T03:00:17;101049.03;;;11.77;100.00
11712;BME280;5912;51.034;6.984;2022-09-19T03:02:47;101065.03;;;11.76;100.00
11712;BME280;5912;51.034;6.984;2022-09-19T03:05:20;101054.69;;;11.74;100.00
11712;BME280;5912;51.034;6.984;2022-09-19T03:07:52;101050.66;;;11.72;100.00
11712;BME280;5912;51.034;6.984;2022-09-19T03:10:21;101058.75;;;11.70;100.00
11712;BME280;5912;51.034;6.984;2022-09-19T03:12:52;101059.31;;;11.66;100.00
11712;BME280;5912;51.034;6.984;2022-09-19T03:15:36;101061.59;;;11.69;100.00
11712;BME280;5912;51.034;6.984;2022-09-19T03:18:09;101062.97;;;11.65;100.00
11712;BME280;5912;51.034;6.984;2022-09-19T03:20:36;101067.44;;;11.64;100.00
11712;BME280;5912;51.034;6.984;2022-09-19T03:23:04;101065.63;;;11.65;100.00
11712;BME280;5912;51.034;6.984;2022-09-19T03:25:29;101063.59;;;11.67;100.00
11712;BME280;5912;51.034;6.984;2022-09-19T03:27:55;101044.69;;;11.57;100.00
11712;BME280;5912;51.034;6.984;2022-09-19T03:30:21;101066.25;;;11.73;100.00
11712;BME280;5912;51.034;6.984;2022-09-19T03:32:47;101069.19;;;11.51;100.00
11712;BME280;5912;51.034;6.984;2022-09-19T03:35:12;101028.63;;;11.26;100.00
11712;BME280;5912;51.034;6.984;2022-09-19T03:37:39;101070.59;;;11.47;100.00
11712;BME280;5912;51.034;6.984;2022-09-19T03:40:05;101071.22;;;11.49;100.00
11712;BME280;5912;51.034;6.984;2022-09-19T03:42:31;101071.84;;;11.51;100.00
11712;BME280;5912;51.034;6.984;2022-09-19T03:45:01;101071.22;;;11.55;100.00
11712;BME280;5912;51.034;6.984;2022-09-19T03:47:27;101072.66;;;11.51;100.00
11712;BME280;5912;51.034;6.984;2022-09-19T03:49:52;101083.56;;;11.55;100.00
11712;BME280;5912;51.034;6.984;2022-09-19T03:52:18;101077.31;;;11.56;100.00
11712;BME280;5912;51.034;6.984;2022-09-19T03:54:44;101078.94;;;11.57;100.00
11712;BME280;5912;51.034;6.984;2022-09-19T03:57:10;101081.78;;;11.62;100.00
11712;BME280;5912;51.034;6.984;2022-09-19T03:59:36;101076.72;;;11.60;100.00
11712;BME280;5912;51.034;6.984;2022-09-19T04:02:05;101082.81;;;11.67;100.00
11712;BME280;5912;51.034;6.984;2022-09-19T04:04:31;101082.03;;;11.67;100.00
11712;BME280;5912;51.034;6.984;2022-09-19T04:06:57;101051.97;;;11.55;100.00
11712;BME280;5912;51.034;6.984;2022-09-19T04:09:23;101087.09;;;11.68;100.00
11712;BME280;5912;51.034;6.984;2022-09-19T04:11:48;101086.91;;;11.70;100.00
11712;BME280;5912;51.034;6.984;2022-09-19T04:14:13;101088.09;;;11.67;100.00
11712;BME280;5912;51.034;6.984;2022-09-19T04:16:39;101093.75;;;11.64;100.00
11712;BME280;5912;51.034;6.984;2022-09-19T04:19:05;101096.59;;;11.63;100.00
11712;BME280;5912;51.034;6.984;2022-09-19T04:21:36;101099.84;;;11.65;100.00
11712;BME280;5912;51.034;6.984;2022-09-19T04:24:01;101089.25;;;11.58;100.00
11712;BME280;5912;51.034;6.984;2022-09-19T04:26:27;101055.78;;;11.39;100.00
11712;BME280;5912;51.034;6.984;2022-09-19T04:28:52;101097.44;;;11.70;100.00
11712;BME280;5912;51.034;6.984;2022-09-19T04:31:18;101105.75;;;11.73;100.00
11712;BME280;5912;51.034;6.984;2022-09-19T04:33:43;101115.69;;;11.78;100.00
11712;BME280;5912;51.034;6.984;2022-09-19T04:36:09;101109.19;;;11.80;100.00
11712;BME280;5912;51.034;6.984;2022-09-19T04:38:35;101105.34;;;11.76;100.00
11712;BME280;5912;51.034;6.984;2022-09-19T04:41:02;101106.56;;;11.80;100.00
11712;BME280;5912;51.034;6.984;2022-09-19T04:43:28;101105.16;;;11.78;100.00
11712;BME280;5912;51.034;6.984;2022-09-19T04:45:54;101120.34;;;11.76;100.00
11712;BME280;5912;51.034;6.984;2022-09-19T04:48:20;101107.97;;;11.70;100.00
11712;BME280;5912;51.034;6.984;2022-09-19T04:50:48;101117.28;;;11.72;100.00
11712;BME280;5912;51.034;6.984;2022-09-19T04:53:22;101093.91;;;11.56;100.00
11712;BME280;5912;51.034;6.984;2022-09-19T04:55:52;101115.47;;;11.73;100.00
11712;BME280;5912;51.034;6.984;2022-09-19T04:58:18;101126.63;;;11.75;100.00
11712;BME280;5912;51.034;6.984;2022-09-19T05:00:48;101121.75;;;11.72;100.00
11712;BME280;5912;51.034;6.984;2022-09-19T05:03:16;101121.34;;;11.68;100.00
11712;BME280;5912;51.034;6.984;2022-09-19T05:05:44;101125.19;;;11.72;100.00
11712;BME280;5912;51.034;6.984;2022-09-19T05:08:14;101128.63;;;11.73;100.00
11712;BME280;5912;51.034;6.984;2022-09-19T05:10:44;101133.50;;;11.76;100.00
11712;BME280;5912;51.034;6.984;2022-09-19T05:13:11;101124.16;;;11.67;100.00
11712;BME280;5912;51.034;6.984;2022-09-19T05:15:36;101138.78;;;11.76;100.00
11712;BME280;5912;51.034;6.984;2022-09-19T05:18:04;101139.38;;;11.78;100.00
11712;BME280;5912;51.034;6.984;2022-09-19T05:20:29;101139.38;;;11.78;100.00
11712;BME280;5912;51.034;6.984;2022-09-19T05:22:56;101147.72;;;11.81;100.00
11712;BME280;5912;51.034;6.984;2022-09-19T05:25:24;101144.88;;;11.83;100.00
11712;BME280;5912;51.034;6.984;2022-09-19T05:27:49;101150.56;;;11.86;100.00
11712;BME280;5912;51.034;6.984;2022-09-19T05:30:15;101107.34;;;11.68;100.00
11712;BME280;5912;51.034;6.984;2022-09-19T05:32:40;101150.56;;;11.93;100.00
11712;BME280;5912;51.034;6.984;2022-09-19T05:35:10;101156.25;;;11.97;100.00
11712;BME280;5912;51.034;6.984;2022-09-19T05:37:39;101154.44;;;11.97;100.00
11712;BME280;5912;51.034;6.984;2022-09-19T05:40:05;101158.06;;;12.03;100.00
11712;BME280;5912;51.034;6.984;2022-09-19T05:42:31;101160.72;;;12.09;100.00
11712;BME280;5912;51.034;6.984;2022-09-19T05:44:56;101166.22;;;12.14;100.00
11712;BME280;5912;51.034;6.984;2022-09-19T05:47:22;101161.16;;;12.19;100.00
11712;BME280;5912;51.034;6.984;2022-09-19T05:49:47;101178.19;;;12.23;100.00
11712;BME280;5912;51.034;6.984;2022-09-19T05:52:13;101132.34;;;11.98;100.00
11712;BME280;5912;51.034;6.984;2022-09-19T05:54:56;101176.16;;;12.25;100.00
11712;BME280;5912;51.034;6.984;2022-09-19T05:57:21;101180.03;;;12.23;100.00
11712;BME280;5912;51.034;6.984;2022-09-19T05:59:47;101185.72;;;12.26;100.00
11712;BME280;5912;51.034;6.984;2022-09-19T06:02:12;101188.94;;;12.28;100.00
11712;BME280;5912;51.034;6.984;2022-09-19T06:04:37;101190.81;;;12.34;100.00
11712;BME280;5912;51.034;6.984;2022-09-19T06:07:03;101195.06;;;12.42;100.00
11712;BME280;5912;51.034;6.984;2022-09-19T06:09:29;101201.97;;;12.49;100.00
11712;BME280;5912;51.034;6.984;2022-09-19T06:11:54;101201.34;;;12.54;100.00
11712;BME280;5912;51.034;6.984;2022-09-19T06:14:19;101215.56;;;12.59;100.00
11712;BME280;5912;51.034;6.984;2022-09-19T06:16:48;101205.63;;;12.61;100.00
11712;BME280;5912;51.034;6.984;2022-09-19T06:19:13;101201.16;;;12.68;100.00
11712;BME280;5912;51.034;6.984;2022-09-19T06:21:39;101202.97;;;12.74;100.00
11712;BME280;5912;51.034;6.984;2022-09-19T06:24:04;101215.16;;;12.82;100.00
11712;BME280;5912;51.034;6.984;2022-09-19T06:26:32;101219.44;;;12.89;100.00
11712;BME280;5912;51.034;6.984;2022-09-19T06:28:58;101220.63;;;13.00;100.00
11712;BME280;5912;51.034;6.984;2022-09-19T06:31:26;101180.25;;;12.86;100.00
11712;BME280;5912;51.034;6.984;2022-09-19T06:33:53;101198.50;;;13.07;100.00
11712;BME280;5912;51.034;6.984;2022-09-19T06:36:18;101211.88;;;13.25;100.00
11712;BME280;5912;51.034;6.984;2022-09-19T06:38:43;101228.09;;;13.49;100.00
11712;BME280;5912;51.034;6.984;2022-09-19T06:41:09;101230.09;;;13.66;100.00
11712;BME280;5912;51.034;6.984;2022-09-19T06:43:34;101240.56;;;13.79;100.00
11712;BME280;5912;51.034;6.984;2022-09-19T06:46:00;101244.19;;;13.91;100.00
11712;BME280;5912;51.034;6.984;2022-09-19T06:48:25;101237.03;;;13.98;100.00
11712;BME280;5912;51.034;6.984;2022-09-19T06:50:50;101236.78;;;14.06;100.00
11712;BME280;5912;51.034;6.984;2022-09-19T06:53:16;101252.19;;;14.22;100.00
11712;BME280;5912;51.034;6.984;2022-09-19T06:55:42;101251.75;;;14.32;100.00
11712;BME280;5912;51.034;6.984;2022-09-19T06:58:10;101246.63;;;14.37;100.00
11712;BME280;5912;51.034;6.984;2022-09-19T07:00:36;101250.88;;;14.38;100.00
11712;BME280;5912;51.034;6.984;2022-09-19T07:03:08;101254.75;;;14.42;100.00
11712;BME280;5912;51.034;6.984;2022-09-19T07:05:37;101256.16;;;14.44;100.00
11712;BME280;5912;51.034;6.984;2022-09-19T07:08:04;101238.28;;;14.40;100.00
11712;BME280;5912;51.034;6.984;2022-09-19T07:10:29;101263.41;;;14.55;100.00
11712;BME280;5912;51.034;6.984;2022-09-19T07:12:59;101217.53;;;14.37;100.00
11712;BME280;5912;51.034;6.984;2022-09-19T07:15:27;101272.91;;;14.69;100.00
11712;BME280;5912;51.034;6.984;2022-09-19T07:17:54;101270.19;;;14.76;100.00
11712;BME280;5912;51.034;6.984;2022-09-19T07:20:19;101269.28;;;14.89;100.00
11712;BME280;5912;51.034;6.984;2022-09-19T07:22:45;101280.91;;;15.12;100.00
11712;BME280;5912;51.034;6.984;2022-09-19T07:25:10;101278.38;;;15.24;99.16
11712;BME280;5912;51.034;6.984;2022-09-19T07:27:36;101273.84;;;15.24;98.04
11712;BME280;5912;51.034;6.984;2022-09-19T07:30:03;101285.59;;;15.35;98.07
11712;BME280;5912;51.034;6.984;2022-09-19T07:32:29;101284.31;;;15.44;98.18
11712;BME280;5912;51.034;6.984;2022-09-19T07:34:55;101256.34;;;15.23;98.36
11712;BME280;5912;51.034;6.984;2022-09-19T07:37:20;101290.56;;;15.49;97.07
11712;BME280;5912;51.034;6.984;2022-09-19T07:39:46;101296.31;;;15.64;97.22
11712;BME280;5912;51.034;6.984;2022-09-19T07:42:11;101295.53;;;15.82;97.31
11712;BME280;5912;51.034;6.984;2022-09-19T07:44:36;101297.22;;;15.94;95.32
11712;BME280;5912;51.034;6.984;2022-09-19T07:47:01;101303.25;;;16.01;93.55
11712;BME280;5912;51.034;6.984;2022-09-19T07:49:45;101300.34;;;16.21;93.57
11712;BME280;5912;51.034;6.984;2022-09-19T07:52:11;101307.47;;;16.39;93.67
11712;BME280;5912;51.034;6.984;2022-09-19T07:54:36;101251.28;;;16.12;93.53
11712;BME280;5912;51.034;6.984;2022-09-19T07:57:01;101316.31;;;16.51;92.72
11712;BME280;5912;51.034;6.984;2022-09-19T07:59:27;101315.31;;;16.63;92.80
11712;BME280;5912;51.034;6.984;2022-09-19T08:01:52;101312.59;;;16.81;91.56
11712;BME280;5912;51.034;6.984;2022-09-19T08:07:23;101325.94;;;17.27;88.73
11712;BME280;5912;51.034;6.984;2022-09-19T08:10:13;101332.59;;;17.48;89.17
11712;BME280;5912;51.034;6.984;2022-09-19T08:12:41;101326.56;;;17.64;89.38
11712;BME280;5912;51.034;6.984;2022-09-19T08:15:09;101334.41;;;17.82;88.27
11712;BME280;5912;51.034;6.984;2022-09-19T08:17:34;101338.66;;;17.95;87.45
11712;BME280;5912;51.034;6.984;2022-09-19T08:20:13;101340.06;;;17.97;84.74
11712;BME280;5912;51.034;6.984;2022-09-19T08:22:39;101342.81;;;18.02;84.90
11712;BME280;5912;51.034;6.984;2022-09-19T08:25:04;101345.94;;;18.11;86.07
11712;BME280;5912;51.034;6.984;2022-09-19T08:27:30;101338.75;;;18.23;85.97
11712;BME280;5912;51.034;6.984;2022-09-19T08:29:56;101344.81;;;18.35;85.49
11712;BME280;5912;51.034;6.984;2022-09-19T08:32:28;101323.31;;;18.25;82.01
11712;BME280;5912;51.034;6.984;2022-09-19T08:34:54;101343.44;;;18.44;82.25
11712;BME280;5912;51.034;6.984;2022-09-19T08:37:19;101350.25;;;18.51;81.43
11712;BME280;5912;51.034;6.984;2022-09-19T08:39:45;101344.44;;;18.54;81.07
11712;BME280;5912;51.034;6.984;2022-09-19T08:42:42;101360.88;;;19.41;79.99
11712;BME280;5912;51.034;6.984;2022-09-19T08:45:30;101352.28;;;20.31;76.85
11712;BME280;5912;51.034;6.984;2022-09-19T08:48:04;101347.78;;;21.12;72.33
11712;BME280;5912;51.034;6.984;2022-09-19T08:50:32;101341.78;;;21.31;66.43
11712;BME280;5912;51.034;6.984;2022-09-19T08:53:02;101357.41;;;21.13;65.22
11712;BME280;5912;51.034;6.984;2022-09-19T08:55:33;101361.44;;;20.89;67.25
11712;BME280;5912;51.034;6.984;2022-09-19T08:58:06;101358.75;;;20.89;66.78
11712;BME280;5912;51.034;6.984;2022-09-19T09:00:37;101355.56;;;20.87;66.26
11712;BME280;5912;51.034;6.984;2022-09-19T09:03:17;101367.72;;;20.99;66.61
11712;BME280;5912;51.034;6.984;2022-09-19T09:05:47;101361.31;;;21.00;66.14
11712;BME280;5912;51.034;6.984;2022-09-19T09:11:45;101364.31;;;20.82;65.07
11712;BME280;5912;51.034;6.984;2022-09-19T09:17:40;101360.69;;;20.67;68.42
11712;BME280;5912;51.034;6.984;2022-09-19T09:20:32;101364.78;;;21.01;67.14
11712;BME280;5912;51.034;6.984;2022-09-19T09:23:10;101364.88;;;21.47;64.13
11712;BME280;5912;51.034;6.984;2022-09-19T09:25:42;101368.22;;;21.64;63.82
11712;BME280;5912;51.034;6.984;2022-09-19T09:30:42;101374.03;;;21.51;62.34
11712;BME280;5912;51.034;6.984;2022-09-19T09:33:28;101370.28;;;21.52;61.99
11712;BME280;5912;51.034;6.984;2022-09-19T09:36:05;101365.53;;;21.59;62.93
11712;BME280;5912;51.034;6.984;2022-09-19T09:38:39;101371.53;;;21.76;61.42
11712;BME280;5912;51.034;6.984;2022-09-19T09:41:40;101375.06;;;21.82;60.80
11712;BME280;5912;51.034;6.984;2022-09-19T09:49:12;101371.59;;;21.86;58.87
11712;BME280;5912;51.034;6.984;2022-09-19T09:51:47;101374.69;;;21.73;58.57
11712;BME280;5912;51.034;6.984;2022-09-19T09:54:39;101372.66;;;21.85;59.43
11712;BME280;5912;51.034;6.984;2022-09-19T09:57:43;101373.41;;;21.76;59.50
11712;BME280;5912;51.034;6.984;2022-09-19T10:00:15;101368.59;;;21.78;61.18
11712;BME280;5912;51.034;6.984;2022-09-19T10:03:19;101371.06;;;21.84;59.96
11712;BME280;5912;51.034;6.984;2022-09-19T10:06:14;101372.91;;;21.79;61.21
11712;BME280;5912;51.034;6.984;2022-09-19T10:08:57;101371.06;;;21.84;59.99
11712;BME280;5912;51.034;6.984;2022-09-19T10:13:56;101371.38;;;21.93;60.31
11712;BME280;5912;51.034;6.984;2022-09-19T10:16:34;101364.34;;;21.82;59.45
11712;BME280;5912;51.034;6.984;2022-09-19T10:19:18;101366.25;;;21.86;59.16
11712;BME280;5912;51.034;6.984;2022-09-19T10:21:50;101363.50;;;21.76;60.05
11712;BME280;5912;51.034;6.984;2022-09-19T10:24:51;101368.78;;;21.71;61.44
11712;BME280;5912;51.034;6.984;2022-09-19T10:29:56;101360.47;;;23.57;56.43
11712;BME280;5912;51.034;6.984;2022-09-19T10:32:30;101357.09;;;24.15;52.15
11712;BME280;5912;51.034;6.984;2022-09-19T10:35:00;101334.19;;;24.27;52.83
11712;BME280;5912;51.034;6.984;2022-09-19T10:37:26;101357.00;;;24.84;50.38
11712;BME280;5912;51.034;6.984;2022-09-19T10:39:59;101354.69;;;25.68;49.19
11712;BME280;5912;51.034;6.984;2022-09-19T10:42:36;101352.69;;;26.26;47.48
11712;BME280;5912;51.034;6.984;2022-09-19T10:45:16;101349.63;;;26.32;47.00
11712;BME280;5912;51.034;6.984;2022-09-19T10:47:42;101336.44;;;26.31;46.72
11712;BME280;5912;51.034;6.984;2022-09-19T10:50:13;101344.66;;;25.73;46.01
11712;BME280;5912;51.034;6.984;2022-09-19T10:52:39;101343.84;;;24.82;47.20
11712;BME280;5912;51.034;6.984;2022-09-19T10:55:06;101334.09;;;23.84;49.49
11712;BME280;5912;51.034;6.984;2022-09-19T10:57:44;101338.22;;;23.06;51.84
11712;BME280;5912;51.034;6.984;2022-09-19T11:01:16;101326.84;;;22.44;56.03
11712;BME280;5912;51.034;6.984;2022-09-19T11:03:32;101338.00;;;22.11;59.18
11712;BME280;5912;51.034;6.984;2022-09-19T11:06:09;101337.59;;;21.82;62.43
11712;BME280;5912;51.034;6.984;2022-09-19T11:08:48;101331.94;;;21.42;64.99
11712;BME280;5912;51.034;6.984;2022-09-19T11:25:18;101337.38;;;25.97;49.64
11712;BME280;5912;51.034;6.984;2022-09-19T11:30:59;101361.28;;;23.22;50.07
11712;BME280;5912;51.034;6.984;2022-09-19T11:37:17;101355.84;;;21.17;61.24
11712;BME280;5912;51.034;6.984;2022-09-19T11:39:16;101352.97;;;20.70;65.03
11712;BME280;5912;51.034;6.984;2022-09-19T11:42:00;101352.56;;;20.57;67.70
11712;BME280;5912;51.034;6.984;2022-09-19T11:44:57;101352.41;;;20.68;70.26
11712;BME280;5912;51.034;6.984;2022-09-19T11:50:35;101354.31;;;23.46;60.66
11712;BME280;5912;51.034;6.984;2022-09-19T11:53:11;101357.28;;;24.82;53.26
11712;BME280;5912;51.034;6.984;2022-09-19T11:55:54;101347.69;;;26.14;50.24
11712;BME280;5912;51.034;6.984;2022-09-19T11:58:46;101355.44;;;27.13;46.48
11712;BME280;5912;51.034;6.984;2022-09-19T12:01:40;101348.22;;;27.27;44.55
11712;BME280;5912;51.034;6.984;2022-09-19T12:10:19;101330.28;;;26.67;43.41
11712;BME280;5912;51.034;6.984;2022-09-19T12:13:00;101310.44;;;25.97;45.66
11712;BME280;5912;51.034;6.984;2022-09-19T12:15:30;101314.44;;;25.76;47.97
11712;BME280;5912;51.034;6.984;2022-09-19T12:18:17;101309.13;;;25.48;45.88
11712;BME280;5912;51.034;6.984;2022-09-19T12:20:48;101312.81;;;25.23;45.83
11712;BME280;5912;51.034;6.984;2022-09-19T12:23:33;101306.28;;;25.29;45.32
11712;BME280;5912;51.034;6.984;2022-09-19T12:26:26;101311.81;;;25.48;44.88
11712;BME280;5912;51.034;6.984;2022-09-19T12:28:59;101316.59;;;25.22;44.01
11712;BME280;5912;51.034;6.984;2022-09-19T12:31:31;101305.81;;;24.55;43.55
11712;BME280;5912;51.034;6.984;2022-09-19T12:34:05;101376.84;;;23.55;45.34
11712;BME280;5912;51.034;6.984;2022-09-19T12:36:47;101386.03;;;21.85;50.03
11712;BME280;5912;51.034;6.984;2022-09-19T12:39:35;101378.47;;;20.34;57.80
11712;BME280;5912;51.034;6.984;2022-09-19T12:42:09;101385.59;;;19.20;64.60
11712;BME280;5912;51.034;6.984;2022-09-19T12:44:51;101402.47;;;18.41;71.19
11712;BME280;5912;51.034;6.984;2022-09-19T12:50:25;101400.38;;;17.39;80.35
11712;BME280;5912;51.034;6.984;2022-09-19T12:53:13;101402.41;;;17.14;83.64
11712;BME280;5912;51.034;6.984;2022-09-19T12:58:25;101388.00;;;16.80;88.40
11712;BME280;5912;51.034;6.984;2022-09-19T13:01:05;101396.78;;;16.81;89.04
11712;BME280;5912;51.034;6.984;2022-09-19T13:03:41;101399.88;;;16.78;89.74
11712;BME280;5912;51.034;6.984;2022-09-19T13:06:16;101373.88;;;16.68;89.89
11712;BME280;5912;51.034;6.984;2022-09-19T13:08:59;101378.72;;;16.71;90.72
11712;BME280;5912;51.034;6.984;2022-09-19T13:14:00;101381.16;;;16.73;90.98
11712;BME280;5912;51.034;6.984;2022-09-19T13:16:31;101333.75;;;16.40;91.20
11712;BME280;5912;51.034;6.984;2022-09-19T13:18:58;101367.81;;;16.61;90.76
11712;BME280;5912;51.034;6.984;2022-09-19T13:21:45;101377.81;;;16.48;91.38
11712;BME280;5912;51.034;6.984;2022-09-19T13:27:08;101363.66;;;16.54;91.69
11712;BME280;5912;51.034;6.984;2022-09-19T13:32:02;101370.94;;;16.58;92.13
11712;BME280;5912;51.034;6.984;2022-09-19T13:42:43;101354.25;;;17.22;90.69
11712;BME280;5912;51.034;6.984;2022-09-19T13:48:20;101359.75;;;17.73;88.59
11712;BME280;5912;51.034;6.984;2022-09-19T13:50:57;101357.53;;;17.82;88.13
11712;BME280;5912;51.034;6.984;2022-09-19T13:55:59;101351.63;;;17.91;86.81
11712;BME280;5912;51.034;6.984;2022-09-19T14:02:01;101345.03;;;18.05;85.16
11712;BME280;5912;51.034;6.984;2022-09-19T14:04:43;101350.19;;;18.12;85.06
11712;BME280;5912;51.034;6.984;2022-09-19T14:10:38;101346.16;;;18.21;80.62
11712;BME280;5912;51.034;6.984;2022-09-19T14:21:03;101338.72;;;19.07;79.22
11712;BME280;5912;51.034;6.984;2022-09-19T14:23:33;101340.94;;;20.03;80.38
11712;BME280;5912;51.034;6.984;2022-09-19T14:26:01;101344.56;;;20.57;73.92
11712;BME280;5912;51.034;6.984;2022-09-19T14:39:46;101331.28;;;22.13;61.26
11712;BME280;5912;51.034;6.984;2022-09-19T14:47:41;101337.63;;;20.87;63.94
11712;BME280;5912;51.034;6.984;2022-09-19T14:50:23;101323.88;;;20.47;67.58
11712;BME280;5912;51.034;6.984;2022-09-19T14:53:28;101326.25;;;20.22;66.75
11712;BME280;5912;51.034;6.984;2022-09-19T14:56:00;101329.28;;;19.87;67.21
11712;BME280;5912;51.034;6.984;2022-09-19T15:01:06;101332.44;;;19.30;70.21
11712;BME280;5912;51.034;6.984;2022-09-19T15:03:45;101328.06;;;19.07;72.21
11712;BME280;5912;51.034;6.984;2022-09-19T15:06:17;101323.28;;;18.92;72.37
11712;BME280;5912;51.034;6.984;2022-09-19T15:08:49;101332.22;;;18.86;73.25
11712;BME280;5912;51.034;6.984;2022-09-19T15:11:15;101328.00;;;18.74;72.87
11712;BME280;5912;51.034;6.984;2022-09-19T15:13:47;101320.66;;;18.64;70.94
11712;BME280;5912;51.034;6.984;2022-09-19T15:16:13;101318.94;;;18.58;72.52
11712;BME280;5912;51.034;6.984;2022-09-19T15:18:39;101321.13;;;18.61;71.81
11712;BME280;5912;51.034;6.984;2022-09-19T15:21:08;101331.22;;;18.59;70.08
11712;BME280;5912;51.034;6.984;2022-09-19T15:23:40;101322.31;;;18.54;66.70
11712;BME280;5912;51.034;6.984;2022-09-19T15:26:42;101319.09;;;18.52;70.25
11712;BME280;5912;51.034;6.984;2022-09-19T15:29:28;101314.38;;;18.42;68.93
11712;BME280;5912;51.034;6.984;2022-09-19T15:32:14;101315.53;;;18.46;70.22
11712;BME280;5912;51.034;6.984;2022-09-19T15:34:40;101325.72;;;18.49;69.39
11712;BME280;5912;51.034;6.984;2022-09-19T15:37:12;101322.22;;;18.37;69.62
11712;BME280;5912;51.034;6.984;2022-09-19T15:39:39;101318.44;;;18.33;71.11
11712;BME280;5912;51.034;6.984;2022-09-19T15:42:05;101308.66;;;18.22;68.79